Time;durP1;ratioP1;P1;durP2;ratioP2;P2;SDS_P1;SDS_P2;PMS_P1;PMS_P2;Temp;Humidity;BMP_temperature;BMP_pressure;BME280_temperature;BME280_humidity;BME280_pressure;Samples;Min_cycle;Max_cycle;Signal;HPM_P1;HPM_P2
2021/12/25 00:01:22;;;;;;;147.93;14.73;;;5.90;1.00;;;;;;4988385;28;20226;-85
2021/12/25 00:03:52;;;;;;;281.47;19.27;;;5.90;1.00;;;;;;4993389;28;20518;-84
2021/12/25 00:06:20;;;;;;;23.80;8.50;;;5.90;1.00;;;;;;4977275;28;20197;-85
2021/12/25 00:08:47;;;;;;;12.77;7.63;;;6.00;1.00;;;;;;4992957;28;20280;-84
2021/12/25 00:11:15;;;;;;;22.63;8.37;;;6.00;1.00;;;;;;4975593;28;20190;-86
2021/12/25 00:13:43;;;;;;;50.33;10.10;;;6.00;1.00;;;;;;4975887;28;20208;-85
2021/12/25 00:16:10;;;;;;;13.83;8.67;;;6.00;1.00;;;;;;4976770;28;20200;-84
2021/12/25 00:18:38;;;;;;;15.30;7.60;;;6.00;1.00;;;;;;4964075;28;20205;-85
2021/12/25 00:21:07;;;;;;;16.33;8.30;;;6.00;1.00;;;;;;4980648;28;20189;-85
2021/12/25 00:23:35;;;;;;;19.70;8.53;;;5.90;1.00;;;;;;4984212;28;20248;-85
2021/12/25 00:26:22;;;;;;;28.40;9.80;;;5.90;1.00;;;;;;4983564;28;20193;-85
2021/12/25 00:29:03;;;;;;;23.80;9.57;;;5.90;1.00;;;;;;4990177;28;20284;-84
2021/12/25 00:31:46;;;;;;;15.20;7.93;;;5.90;1.00;;;;;;5000178;28;20195;-86
2021/12/25 00:34:15;;;;;;;20.10;8.50;;;5.90;1.00;;;;;;4984102;28;20196;-85
2021/12/25 00:36:42;;;;;;;88.80;10.00;;;5.90;1.00;;;;;;5003182;28;20682;-85
2021/12/25 00:39:09;;;;;;;32.33;9.63;;;5.90;1.00;;;;;;4975588;28;20182;-85
2021/12/25 00:41:36;;;;;;;150.53;19.40;;;5.90;1.00;;;;;;4994318;28;20209;-85
2021/12/25 00:44:03;;;;;;;25.30;8.80;;;5.80;1.00;;;;;;4980569;28;20198;-85
2021/12/25 00:46:30;;;;;;;52.03;9.40;;;5.90;1.00;;;;;;4975187;28;20185;-85
2021/12/25 00:49:00;;;;;;;335.40;24.90;;;5.80;1.00;;;;;;4966925;28;20218;-85
2021/12/25 00:51:27;;;;;;;79.00;11.87;;;5.80;1.00;;;;;;4983075;28;20196;-85
2021/12/25 00:53:54;;;;;;;30.50;10.27;;;5.80;1.00;;;;;;4999439;28;20205;-85
2021/12/25 00:56:23;;;;;;;57.63;11.40;;;5.80;1.00;;;;;;4980286;28;20240;-84
2021/12/25 00:58:50;;;;;;;102.70;12.83;;;5.80;1.00;;;;;;4964216;28;20197;-85
2021/12/25 01:01:16;;;;;;;23.67;8.70;;;5.80;1.00;;;;;;4980629;28;20202;-86
2021/12/25 01:03:44;;;;;;;35.93;9.63;;;5.80;1.00;;;;;;4998819;28;20220;-84
2021/12/25 01:06:11;;;;;;;22.30;9.03;;;5.80;1.00;;;;;;4982848;28;20189;-85
2021/12/25 01:08:38;;;;;;;30.93;9.67;;;5.80;1.00;;;;;;4998917;28;20687;-85
2021/12/25 01:11:05;;;;;;;14.10;7.80;;;5.80;1.00;;;;;;4999508;28;20189;-85
2021/12/25 01:13:37;;;;;;;16.23;8.07;;;5.80;1.00;;;;;;4983121;28;20247;-84
2021/12/25 01:27:16;;;;;;;11.87;7.20;;;5.90;1.00;;;;;;4999374;28;20497;-87
2021/12/25 01:30:07;;;;;;;9.70;6.37;;;5.90;1.00;;;;;;4997946;28;20209;-88
2021/12/25 01:35:23;;;;;;;9.63;5.90;;;5.90;1.00;;;;;;4998779;28;20239;-87
2021/12/25 01:40:49;;;;;;;7.77;5.50;;;5.80;1.00;;;;;;4979316;28;20650;-88
2021/12/25 01:48:47;;;;;;;8.57;5.90;;;5.80;1.00;;;;;;4979648;28;20214;-88
2021/12/25 01:51:14;;;;;;;8.87;5.17;;;5.80;1.00;;;;;;4995768;28;20193;-86
2021/12/25 01:53:42;;;;;;;8.77;5.37;;;5.90;1.00;;;;;;4995598;28;20209;-88
2021/12/25 01:56:09;;;;;;;6.13;4.97;;;5.90;1.00;;;;;;4979636;28;20221;-88
2021/12/25 01:58:37;;;;;;;8.13;5.57;;;5.90;1.00;;;;;;4967085;28;20178;-87
2021/12/25 02:01:07;;;;;;;11.57;5.97;;;5.90;1.00;;;;;;4998443;28;20189;-88
2021/12/25 02:03:36;;;;;;;9.70;5.30;;;5.90;1.00;;;;;;4998520;28;20296;-88
2021/12/25 02:06:08;;;;;;;11.30;5.37;;;5.80;1.00;;;;;;4998359;28;20675;-89
2021/12/25 02:08:37;;;;;;;5.30;4.10;;;5.80;1.00;;;;;;4981932;28;20255;-88
2021/12/25 02:11:05;;;;;;;6.83;4.03;;;5.70;1.00;;;;;;4998209;28;20197;-87
2021/12/25 02:13:37;;;;;;;5.87;4.43;;;5.80;1.00;;;;;;4963477;28;20196;-87
2021/12/25 02:16:11;;;;;;;5.27;3.40;;;5.90;1.00;;;;;;4979500;28;20186;-87
2021/12/25 02:19:04;;;;;;;6.57;3.10;;;5.90;1.00;;;;;;4963873;28;20205;-88
2021/12/25 02:21:34;;;;;;;4.37;3.30;;;5.90;1.00;;;;;;4997446;28;20216;-86
2021/12/25 02:24:04;;;;;;;5.17;3.07;;;5.80;1.00;;;;;;5016584;28;20189;-87
2021/12/25 02:26:32;;;;;;;2.50;2.30;;;5.80;1.00;;;;;;4999465;28;20260;-89
2021/12/25 02:28:59;;;;;;;2.20;1.73;;;5.80;1.00;;;;;;4981933;28;20224;-88
2021/12/25 02:31:26;;;;;;;4.83;2.13;;;5.80;1.00;;;;;;4982586;28;20190;-88
2021/12/25 02:33:53;;;;;;;3.57;2.10;;;5.80;1.00;;;;;;4982589;28;20663;-88
2021/12/25 02:36:20;;;;;;;2.67;1.40;;;5.80;1.00;;;;;;4998365;28;20185;-87
2021/12/25 02:38:48;;;;;;;1.87;1.63;;;5.80;1.00;;;;;;4982163;28;20197;-87
2021/12/25 02:41:16;;;;;;;2.93;1.70;;;5.70;1.00;;;;;;4982277;28;20228;-87
2021/12/25 02:43:45;;;;;;;2.63;0.97;;;5.70;1.00;;;;;;4981888;28;20295;-87
2021/12/25 02:46:13;;;;;;;1.37;1.10;;;5.70;1.00;;;;;;4981609;28;20595;-87
2021/12/25 02:48:42;;;;;;;5.40;1.30;;;5.70;1.00;;;;;;4997883;28;20256;-88
2021/12/25 02:51:11;;;;;;;2.93;1.10;;;5.70;1.00;;;;;;4981186;28;20189;-87
2021/12/25 02:53:39;;;;;;;1.43;1.10;;;5.70;1.00;;;;;;4998019;28;20602;-87
2021/12/25 02:56:07;;;;;;;1.30;1.10;;;5.70;1.00;;;;;;4981884;28;20193;-88
2021/12/25 02:58:34;;;;;;;1.30;1.00;;;5.60;1.00;;;;;;4981538;28;20197;-87
2021/12/25 03:01:21;;;;;;;1.17;1.00;;;5.60;1.00;;;;;;4981507;28;20285;-87
2021/12/25 03:03:49;;;;;;;0.60;0.60;;;5.60;1.00;;;;;;4972313;28;20669;-85
2021/12/25 03:06:16;;;;;;;1.40;1.00;;;5.70;1.00;;;;;;4997624;28;20193;-86
2021/12/25 03:08:43;;;;;;;2.00;0.53;;;5.70;1.00;;;;;;4996981;28;20315;-86
2021/12/25 03:11:13;;;;;;;0.80;0.63;;;5.70;1.00;;;;;;4981136;28;20185;-87
2021/12/25 03:13:45;;;;;;;3.90;1.07;;;5.70;1.00;;;;;;4981261;28;20201;-86
2021/12/25 03:16:14;;;;;;;2.80;1.00;;;5.70;1.00;;;;;;4981717;28;20188;-86
2021/12/25 03:18:50;;;;;;;0.63;0.63;;;5.70;1.00;;;;;;4980977;28;20205;-85
2021/12/25 03:21:17;;;;;;;4.13;0.50;;;5.60;1.00;;;;;;4981142;28;20192;-86
2021/12/25 03:23:48;;;;;;;1.73;0.87;;;5.60;1.00;;;;;;4981024;28;20567;-85
2021/12/25 03:26:16;;;;;;;1.20;0.83;;;5.60;1.00;;;;;;4981082;28;20249;-85
2021/12/25 03:28:46;;;;;;;0.60;0.47;;;5.60;1.00;;;;;;4980537;28;20201;-86
2021/12/25 03:31:17;;;;;;;0.67;0.53;;;5.60;1.00;;;;;;4980759;28;20182;-87
2021/12/25 03:33:46;;;;;;;0.37;0.30;;;5.60;1.00;;;;;;4997037;28;20656;-85
2021/12/25 03:36:14;;;;;;;0.60;0.60;;;5.60;1.00;;;;;;4980668;28;20189;-84
2021/12/25 03:38:41;;;;;;;0.60;0.60;;;5.70;1.00;;;;;;4980926;28;20717;-87
2021/12/25 03:41:10;;;;;;;0.43;0.40;;;5.70;1.00;;;;;;4980694;28;20770;-86
2021/12/25 03:43:39;;;;;;;0.40;0.40;;;5.70;1.00;;;;;;4980412;28;20185;-86
2021/12/25 03:46:09;;;;;;;0.90;0.43;;;5.60;1.00;;;;;;4981341;28;20236;-85
2021/12/25 03:59:36;;;;;;;0.30;0.30;;;5.60;1.00;;;;;;5001498;28;20255;-87
2021/12/25 04:02:10;;;;;;;0.50;0.50;;;5.60;1.00;;;;;;4986041;28;20247;-85
2021/12/25 04:04:42;;;;;;;1.53;0.43;;;5.60;1.00;;;;;;4986737;28;20196;-87
2021/12/25 04:07:21;;;;;;;0.97;0.60;;;5.50;1.00;;;;;;5001962;28;20276;-87
2021/12/25 04:09:48;;;;;;;0.40;0.30;;;5.60;1.00;;;;;;4986259;28;20209;-86
2021/12/25 04:12:16;;;;;;;0.40;0.40;;;5.60;1.00;;;;;;4985348;28;20197;-86
2021/12/25 04:14:47;;;;;;;1.10;0.63;;;5.60;1.00;;;;;;4986234;28;20197;-86
2021/12/25 04:17:17;;;;;;;0.73;0.67;;;5.50;1.00;;;;;;5000952;28;20185;-86
2021/12/25 04:19:44;;;;;;;0.53;0.50;;;5.50;1.00;;;;;;4969162;28;20251;-85
2021/12/25 04:22:18;;;;;;;1.33;0.60;;;5.60;1.00;;;;;;4984579;28;20200;-86
2021/12/25 04:24:46;;;;;;;1.07;0.50;;;5.60;1.00;;;;;;4984261;28;20629;-82
2021/12/25 04:27:16;;;;;;;1.10;0.73;;;5.60;1.00;;;;;;4984145;28;20697;-84
2021/12/25 04:29:52;;;;;;;0.50;0.50;;;5.60;1.00;;;;;;4984812;28;20271;-85
2021/12/25 05:05:03;;;;;;;0.40;0.40;;;5.70;1.00;;;;;;5000183;28;20687;-87
2021/12/25 05:07:31;;;;;;;1.40;0.70;;;5.70;1.00;;;;;;4983986;28;20185;-86
2021/12/25 05:09:59;;;;;;;0.70;0.70;;;5.80;1.00;;;;;;4999759;28;20291;-86
2021/12/25 05:12:26;;;;;;;0.70;0.70;;;5.80;1.00;;;;;;4999857;28;20197;-86
2021/12/25 05:14:52;;;;;;;1.17;0.80;;;5.70;1.00;;;;;;4982974;28;20177;-86
2021/12/25 05:17:19;;;;;;;1.33;0.80;;;5.70;1.00;;;;;;4983600;28;20216;-86
2021/12/25 05:19:46;;;;;;;0.70;0.70;;;5.70;1.00;;;;;;4983180;28;20622;-85
2021/12/25 05:22:15;;;;;;;0.80;0.80;;;5.70;1.00;;;;;;4999397;28;20203;-87
2021/12/25 05:24:42;;;;;;;1.37;1.00;;;5.70;1.00;;;;;;4983859;28;20555;-86
2021/12/25 05:27:09;;;;;;;2.70;0.80;;;5.70;1.00;;;;;;4983395;28;20660;-86
2021/12/25 05:29:41;;;;;;;1.00;0.90;;;5.70;1.00;;;;;;4999214;28;20220;-85
2021/12/25 05:32:07;;;;;;;1.27;1.10;;;5.80;1.00;;;;;;5016785;28;20193;-85
2021/12/25 05:34:34;;;;;;;1.80;1.13;;;5.80;1.00;;;;;;4982728;28;20619;-86
2021/12/25 05:37:03;;;;;;;2.20;1.50;;;5.90;1.00;;;;;;4982877;28;20652;-86
2021/12/25 05:39:30;;;;;;;1.83;1.37;;;5.90;1.00;;;;;;4999169;28;20196;-86
2021/12/25 05:41:58;;;;;;;1.53;1.27;;;5.90;1.00;;;;;;4982698;28;20644;-86
2021/12/25 05:44:25;;;;;;;4.10;1.50;;;6.00;1.00;;;;;;4982612;28;20225;-86
2021/12/25 05:46:56;;;;;;;1.37;1.27;;;6.00;1.00;;;;;;4998570;28;20231;-86
2021/12/25 05:49:24;;;;;;;1.50;1.40;;;6.00;1.00;;;;;;4999018;28;20991;-87
2021/12/25 05:51:52;;;;;;;1.60;1.50;;;6.00;1.00;;;;;;4999167;28;20212;-87
2021/12/25 05:54:19;;;;;;;1.90;1.70;;;6.00;1.00;;;;;;4998520;28;20235;-87
2021/12/25 05:56:48;;;;;;;3.70;1.70;;;6.00;1.00;;;;;;4982906;28;20248;-86
2021/12/25 05:59:14;;;;;;;4.30;2.10;;;6.00;1.00;;;;;;4982533;28;20193;-86
2021/12/25 06:01:41;;;;;;;2.97;1.90;;;6.00;1.00;;;;;;4982641;28;20284;-86
2021/12/25 06:04:08;;;;;;;1.87;1.63;;;6.10;1.00;;;;;;4982442;28;20193;-85
2021/12/25 06:06:36;;;;;;;2.80;1.83;;;6.10;1.00;;;;;;4998672;28;20711;-86
2021/12/25 06:09:07;;;;;;;2.67;1.87;;;6.10;1.00;;;;;;4982095;28;20209;-87
2021/12/25 06:11:38;;;;;;;2.60;2.30;;;6.10;1.00;;;;;;4982305;28;20190;-85
2021/12/25 06:14:17;;;;;;;2.87;2.30;;;6.10;1.00;;;;;;4982162;28;20667;-86
2021/12/25 06:16:45;;;;;;;2.80;2.27;;;6.00;1.00;;;;;;4997751;28;20193;-85
2021/12/25 06:19:12;;;;;;;2.87;2.10;;;6.00;1.00;;;;;;4982230;28;20193;-86
2021/12/25 06:21:39;;;;;;;4.43;2.73;;;6.00;1.00;;;;;;4982207;28;20197;-86
2021/12/25 06:24:06;;;;;;;2.60;2.20;;;6.10;1.00;;;;;;4998046;28;20193;-86
2021/12/25 06:26:36;;;;;;;3.13;2.40;;;6.00;1.00;;;;;;4981891;28;20200;-86
2021/12/25 06:29:04;;;;;;;3.47;2.80;;;6.00;1.00;;;;;;4998158;28;20232;-86
2021/12/25 06:31:31;;;;;;;4.00;2.80;;;6.00;1.00;;;;;;4981709;28;20193;-87
2021/12/25 06:33:58;;;;;;;5.10;2.80;;;6.10;1.00;;;;;;4997908;28;20193;-87
2021/12/25 06:36:25;;;;;;;4.33;3.03;;;6.00;1.00;;;;;;4981920;28;20228;-87
2021/12/25 06:38:52;;;;;;;5.10;3.10;;;6.10;1.00;;;;;;4981565;28;20652;-87
2021/12/25 06:41:19;;;;;;;8.77;3.67;;;6.10;1.00;;;;;;4981823;28;20189;-87
2021/12/25 06:43:46;;;;;;;4.03;2.80;;;6.10;1.00;;;;;;4981396;28;20197;-85
2021/12/25 06:46:13;;;;;;;6.10;3.70;;;6.10;1.00;;;;;;4980595;28;20189;-86
2021/12/25 06:48:41;;;;;;;5.53;4.30;;;6.10;1.00;;;;;;4981213;28;20201;-85
2021/12/25 06:51:09;;;;;;;5.90;4.07;;;6.20;1.00;;;;;;4962100;28;20209;-86
2021/12/25 06:53:37;;;;;;;6.13;3.83;;;6.10;1.00;;;;;;4977840;28;20198;-85
2021/12/25 06:56:05;;;;;;;6.57;3.90;;;6.10;1.00;;;;;;4975311;28;20284;-86
2021/12/25 06:58:31;;;;;;;5.80;3.97;;;6.20;1.00;;;;;;4981763;28;20196;-86
2021/12/25 07:00:58;;;;;;;5.80;3.37;;;6.30;1.00;;;;;;4981029;28;20618;-80
2021/12/25 07:03:26;;;;;;;5.37;3.90;;;6.40;1.00;;;;;;4981631;28;20264;-86
2021/12/25 07:05:53;;;;;;;7.07;4.23;;;6.40;1.00;;;;;;4997444;28;20271;-86
2021/12/25 07:08:20;;;;;;;5.43;3.97;;;6.40;1.00;;;;;;4980782;28;20660;-86
2021/12/25 07:10:47;;;;;;;4.77;3.77;;;6.40;1.00;;;;;;4980484;28;20232;-86
2021/12/25 07:13:18;;;;;;;8.40;4.63;;;6.30;1.00;;;;;;4980851;28;20223;-83
2021/12/25 07:15:46;;;;;;;4.30;3.90;;;6.30;1.00;;;;;;4981074;28;20609;-84
2021/12/25 07:18:14;;;;;;;4.83;3.70;;;6.30;1.00;;;;;;4996984;28;20224;-80
2021/12/25 07:20:42;;;;;;;6.83;4.07;;;6.30;1.00;;;;;;4981388;28;20185;-86
2021/12/25 07:23:09;;;;;;;5.67;3.07;;;6.30;1.00;;;;;;4961521;28;20198;-86
2021/12/25 07:25:36;;;;;;;9.20;3.80;;;6.30;1.00;;;;;;4988771;28;20656;-82
2021/12/25 07:28:03;;;;;;;4.47;3.30;;;6.30;1.00;;;;;;4995491;28;20598;-85
2021/12/25 07:30:31;;;;;;;4.83;3.50;;;6.30;1.00;;;;;;4980933;28;20223;-87
2021/12/25 07:32:58;;;;;;;4.13;2.90;;;6.30;1.00;;;;;;4980737;28;20598;-81
2021/12/25 07:35:27;;;;;;;5.93;3.20;;;6.30;1.00;;;;;;4980857;28;20181;-87
2021/12/25 07:37:55;;;;;;;4.07;3.60;;;6.30;1.00;;;;;;4965396;28;20200;-87
2021/12/25 07:40:22;;;;;;;3.70;2.70;;;6.20;1.00;;;;;;4981194;28;20205;-79
2021/12/25 07:42:49;;;;;;;4.20;2.77;;;6.20;1.00;;;;;;4996798;28;20324;-88
2021/12/25 07:45:16;;;;;;;4.47;2.60;;;6.20;1.00;;;;;;4977752;28;20247;-87
2021/12/25 07:47:51;;;;;;;7.87;3.10;;;6.10;1.00;;;;;;4977187;28;20192;-87
2021/12/25 07:50:18;;;;;;;3.73;2.90;;;6.10;1.00;;;;;;4996470;28;20291;-85
2021/12/25 07:52:45;;;;;;;4.90;3.03;;;6.10;1.00;;;;;;5009498;28;20657;-86
2021/12/25 07:55:12;;;;;;;3.83;2.80;;;6.10;1.00;;;;;;4962233;28;20219;-86
2021/12/25 07:57:39;;;;;;;3.43;2.57;;;6.10;1.00;;;;;;4980219;28;20198;-87
2021/12/25 08:00:09;;;;;;;5.07;2.50;;;6.20;1.00;;;;;;4980208;28;20208;-84
2021/12/25 08:02:37;;;;;;;2.83;2.30;;;6.10;1.00;;;;;;4976792;28;20194;-81
2021/12/25 08:05:05;;;;;;;2.30;1.83;;;6.20;1.00;;;;;;4993061;28;20593;-86
2021/12/25 08:07:33;;;;;;;4.03;1.90;;;6.10;1.00;;;;;;4993040;28;20272;-86
2021/12/25 08:10:17;;;;;;;6.70;1.97;;;6.10;99.90;;;;;;4979815;28;20213;-85
2021/12/25 08:12:50;;;;;;;1.97;1.73;;;6.10;99.90;;;;;;4979789;28;20193;-88
2021/12/25 08:15:20;;;;;;;2.23;1.80;;;6.10;99.90;;;;;;4996682;28;20244;-85
2021/12/25 08:17:47;;;;;;;3.13;1.73;;;6.10;99.90;;;;;;4996173;28;20208;-86
2021/12/25 08:20:16;;;;;;;2.07;1.73;;;6.10;99.90;;;;;;4980570;28;20210;-86
2021/12/25 08:22:43;;;;;;;2.90;1.43;;;6.10;99.90;;;;;;4996859;28;20663;-88
2021/12/25 08:25:12;;;;;;;3.30;1.57;;;6.10;99.90;;;;;;4981822;28;20243;-88
2021/12/25 08:27:40;;;;;;;4.03;1.70;;;6.10;99.90;;;;;;4977085;28;20722;-90
2021/12/25 08:30:10;;;;;;;2.33;1.50;;;6.10;99.90;;;;;;4981355;28;20220;-90
2021/12/25 08:32:39;;;;;;;2.10;1.53;;;6.10;99.90;;;;;;4979222;28;20186;-90
2021/12/25 08:35:08;;;;;;;2.53;1.47;;;6.00;99.90;;;;;;4978489;28;20193;-89
2021/12/25 08:37:37;;;;;;;1.70;1.50;;;6.10;99.90;;;;;;4981472;28;20200;-88
2021/12/25 08:40:07;;;;;;;2.00;1.60;;;6.00;99.90;;;;;;4976123;28;20189;-89
2021/12/25 08:42:34;;;;;;;2.13;1.80;;;6.10;99.90;;;;;;4974005;28;20604;-87
2021/12/25 08:47:33;;;;;;;3.17;1.67;;;6.10;99.90;;;;;;5000836;28;20208;-88
2021/12/25 08:50:05;;;;;;;3.77;1.50;;;6.10;99.90;;;;;;4984027;28;20675;-89
2021/12/25 08:52:32;;;;;;;2.60;1.60;;;6.10;99.90;;;;;;4975920;28;20197;-90
2021/12/25 08:54:59;;;;;;;5.70;1.70;;;6.10;99.90;;;;;;4979937;28;20193;-90
2021/12/25 08:57:28;;;;;;;1.77;1.63;;;6.00;99.90;;;;;;4984238;28;20192;-88
2021/12/25 08:59:57;;;;;;;2.07;1.67;;;6.10;99.90;;;;;;4983809;28;20743;-88
2021/12/25 09:02:25;;;;;;;2.23;1.57;;;6.00;99.90;;;;;;4999278;28;20193;-87
2021/12/25 09:04:52;;;;;;;2.27;1.80;;;6.00;99.90;;;;;;4983483;28;20193;-89
2021/12/25 09:07:20;;;;;;;2.40;1.40;;;6.10;99.90;;;;;;4983342;28;20181;-86
2021/12/25 09:09:47;;;;;;;1.50;1.40;;;6.20;99.90;;;;;;4983721;28;20580;-89
2021/12/25 09:12:16;;;;;;;1.90;1.33;;;6.20;99.90;;;;;;4984494;28;20200;-90
2021/12/25 09:14:44;;;;;;;1.97;1.20;;;6.20;99.90;;;;;;4983726;28;20190;-89
2021/12/25 09:17:13;;;;;;;1.63;1.13;;;6.30;99.90;;;;;;4975146;28;20249;-87
2021/12/25 09:19:41;;;;;;;2.80;1.10;;;6.30;99.90;;;;;;4983578;28;20189;-90
2021/12/25 09:22:09;;;;;;;1.93;1.30;;;6.30;99.90;;;;;;4980675;28;20201;-83
2021/12/25 09:24:37;;;;;;;1.10;1.00;;;6.30;99.90;;;;;;4969351;28;20182;-87
2021/12/25 09:27:05;;;;;;;1.23;1.03;;;6.30;99.90;;;;;;4970534;28;20202;-89
2021/12/25 09:29:32;;;;;;;2.53;1.20;;;6.30;99.90;;;;;;4960194;28;20241;-86
2021/12/25 09:31:59;;;;;;;1.37;1.10;;;6.30;99.90;;;;;;4972933;28;20213;-90
2021/12/25 09:34:27;;;;;;;1.40;1.30;;;6.30;99.90;;;;;;4984238;28;20193;-89
2021/12/25 09:36:54;;;;;;;1.20;1.10;;;6.30;99.90;;;;;;4994513;28;20201;-89
2021/12/25 09:39:21;;;;;;;2.67;1.40;;;6.40;99.90;;;;;;4966098;28;20208;-89
2021/12/25 09:41:48;;;;;;;1.53;1.30;;;6.30;99.90;;;;;;4976844;28;20217;-90
2021/12/25 09:44:15;;;;;;;2.57;0.93;;;6.30;99.90;;;;;;4980776;28;20211;-89
2021/12/25 09:46:43;;;;;;;2.10;1.00;;;6.20;95.20;;;;;;4982743;28;20205;-86
2021/12/25 09:49:11;;;;;;;1.00;0.90;;;6.30;99.90;;;;;;4982611;28;20197;-89
2021/12/25 09:51:38;;;;;;;1.23;1.00;;;6.30;99.90;;;;;;4981876;28;20205;-89
2021/12/25 09:54:11;;;;;;;2.17;1.30;;;6.40;99.90;;;;;;4986366;28;20209;-89
2021/12/25 09:56:40;;;;;;;1.30;1.20;;;6.50;99.90;;;;;;4967899;28;20202;-86
2021/12/25 09:59:10;;;;;;;0.80;0.80;;;6.50;99.90;;;;;;4997914;28;20189;-88
2021/12/25 10:01:41;;;;;;;1.00;0.90;;;6.50;99.90;;;;;;4983892;28;20193;-90
2021/12/25 10:04:34;;;;;;;1.53;1.27;;;6.60;99.90;;;;;;4982132;28;20743;-88
2021/12/25 10:07:32;;;;;;;1.03;0.90;;;6.70;99.90;;;;;;5002286;28;20664;-89
2021/12/25 10:10:02;;;;;;;0.80;0.80;;;6.70;6.30;;;;;;4960364;28;20293;-91
2021/12/25 10:12:43;;;;;;;0.70;0.67;;;6.70;1.00;;;;;;4984314;28;20201;-91
2021/12/25 10:15:20;;;;;;;0.60;0.60;;;6.70;1.00;;;;;;5000463;28;20224;-92
2021/12/25 10:17:54;;;;;;;1.07;0.63;;;6.80;1.00;;;;;;4986397;28;20193;-90
2021/12/25 10:20:34;;;;;;;1.13;0.80;;;6.80;1.00;;;;;;4983377;28;20288;-91
2021/12/25 10:23:15;;;;;;;0.73;0.60;;;6.90;1.00;;;;;;4983933;28;20193;-90
2021/12/25 10:25:46;;;;;;;1.23;0.73;;;7.00;1.00;;;;;;4984313;28;20717;-89
2021/12/25 10:28:17;;;;;;;0.73;0.73;;;7.10;1.00;;;;;;4979703;28;20244;-89
2021/12/25 10:31:00;;;;;;;0.90;0.70;;;7.20;1.00;;;;;;4994477;28;20232;-88
2021/12/25 10:33:29;;;;;;;0.90;0.70;;;7.30;99.90;;;;;;4998930;28;20204;-86
2021/12/25 10:36:01;;;;;;;0.70;0.60;;;7.40;99.90;;;;;;4983758;28;20277;-87
2021/12/25 10:38:29;;;;;;;0.75;0.70;;;7.60;99.90;;;;;;4998986;28;20255;-91
2021/12/25 10:41:13;;;;;;;0.80;0.60;;;7.60;99.90;;;;;;4982531;28;20201;-89
2021/12/25 10:43:42;;;;;;;0.67;0.63;;;7.50;39.60;;;;;;4999438;28;20201;-87
2021/12/25 10:46:10;;;;;;;3.00;0.80;;;7.40;41.90;;;;;;4973670;28;20662;-86
2021/12/25 10:48:38;;;;;;;1.40;0.80;;;7.30;97.80;;;;;;4982474;28;20190;-89
2021/12/25 10:51:05;;;;;;;0.67;0.67;;;7.30;99.90;;;;;;4979977;28;20202;-89
2021/12/25 10:53:42;;;;;;;1.00;0.90;;;7.30;99.90;;;;;;4982127;28;20192;-86
2021/12/25 10:56:14;;;;;;;0.80;0.80;;;7.30;99.90;;;;;;4974328;28;20181;-89
2021/12/25 10:58:43;;;;;;;1.50;0.93;;;7.20;99.90;;;;;;4982130;28;20185;-89
2021/12/25 11:01:16;;;;;;;0.80;0.80;;;7.10;99.90;;;;;;4982937;28;20547;-89
2021/12/25 11:03:45;;;;;;;0.90;0.90;;;7.10;99.90;;;;;;4991318;28;20189;-89
2021/12/25 11:06:18;;;;;;;0.70;0.70;;;7.20;99.90;;;;;;4972786;28;20280;-90
2021/12/25 11:08:47;;;;;;;1.13;0.83;;;7.30;99.90;;;;;;4982273;28;20194;-90
2021/12/25 11:11:15;;;;;;;2.00;1.00;;;7.40;99.90;;;;;;4979288;28;20592;-88
2021/12/25 11:13:47;;;;;;;1.60;0.90;;;7.50;99.90;;;;;;5016222;28;20205;-90
2021/12/25 11:16:16;;;;;;;0.87;0.87;;;7.30;99.90;;;;;;4982344;28;20231;-91
2021/12/25 11:19:08;;;;;;;1.20;0.90;;;7.30;99.90;;;;;;4979122;28;20256;-89
2021/12/25 11:21:43;;;;;;;1.30;1.00;;;7.40;99.90;;;;;;5006608;28;20204;-88
2021/12/25 11:24:20;;;;;;;1.03;0.90;;;7.30;99.90;;;;;;5016471;28;20196;-88
2021/12/25 11:26:52;;;;;;;0.90;0.90;;;7.30;99.90;;;;;;4970886;28;20202;-89
2021/12/25 11:29:23;;;;;;;1.00;0.90;;;7.30;99.90;;;;;;4957708;28;20197;-86
2021/12/25 11:31:52;;;;;;;1.37;1.20;;;7.30;99.90;;;;;;5010103;28;20217;-89
2021/12/25 11:34:20;;;;;;;1.50;1.13;;;7.20;99.90;;;;;;4982443;28;20199;-90
2021/12/25 11:36:51;;;;;;;4.67;1.30;;;7.20;99.90;;;;;;4982641;28;20190;-87
2021/12/25 11:39:21;;;;;;;1.83;1.07;;;7.20;99.90;;;;;;4998484;28;20185;-87
2021/12/25 11:41:50;;;;;;;1.50;1.10;;;7.20;99.90;;;;;;4982034;28;20247;-88
2021/12/25 11:44:42;;;;;;;2.23;1.50;;;7.20;99.90;;;;;;4999637;28;20197;-88
2021/12/25 11:47:28;;;;;;;1.30;1.20;;;7.10;99.90;;;;;;4984216;28;20268;-86
2021/12/25 11:49:59;;;;;;;2.87;1.70;;;7.10;99.90;;;;;;4982981;28;20201;-89
2021/12/25 11:52:31;;;;;;;2.17;1.50;;;7.10;99.90;;;;;;4981150;28;20216;-87
2021/12/25 11:58:40;;;;;;;2.27;1.33;;;7.10;99.90;;;;;;4987412;28;20201;-85
2021/12/25 12:01:28;;;;;;;1.40;1.30;;;7.00;99.90;;;;;;4980315;28;20193;-88
2021/12/25 12:03:57;;;;;;;2.43;1.00;;;7.00;99.90;;;;;;4998335;28;20652;-87
2021/12/25 12:06:51;;;;;;;2.53;1.40;;;6.90;99.90;;;;;;4980734;28;20207;-85
2021/12/25 12:09:28;;;;;;;1.60;1.33;;;6.90;99.90;;;;;;4996634;28;20659;-84
2021/12/25 12:12:04;;;;;;;1.33;1.20;;;6.90;99.90;;;;;;4980657;28;20223;-86
2021/12/25 12:14:32;;;;;;;1.20;1.10;;;7.00;99.90;;;;;;4984834;28;20185;-86
2021/12/25 12:17:06;;;;;;;3.47;1.50;;;7.00;1.00;;;;;;5000182;28;20215;-84
2021/12/25 12:19:35;;;;;;;1.40;1.30;;;7.00;1.00;;;;;;4984407;28;20189;-83
2021/12/25 12:25:17;;;;;;;2.37;1.67;;;7.10;1.00;;;;;;5000246;28;20247;-84
2021/12/25 12:27:50;;;;;;;1.53;1.43;;;7.20;1.00;;;;;;4999633;28;20189;-84
2021/12/25 12:30:33;;;;;;;1.90;1.60;;;7.20;1.00;;;;;;4971861;28;20278;-84
2021/12/25 12:33:23;;;;;;;2.45;1.40;;;7.40;1.00;;;;;;5000007;28;20227;-85
2021/12/25 12:35:52;;;;;;;2.00;1.50;;;7.50;1.00;;;;;;4983641;28;20189;-84
2021/12/25 12:38:39;;;;;;;2.00;1.60;;;7.50;99.90;;;;;;4983816;28;20256;-84
2021/12/25 12:41:22;;;;;;;2.55;1.77;;;7.50;99.90;;;;;;4980411;28;20563;-84
2021/12/25 12:43:53;;;;;;;1.65;1.33;;;7.40;99.90;;;;;;5000102;28;20259;-84
2021/12/25 12:46:23;;;;;;;2.15;1.48;;;7.30;99.90;;;;;;5016925;28;20284;-84
2021/12/25 12:49:08;;;;;;;4.67;3.33;;;7.20;99.90;;;;;;4983335;28;20201;-83
2021/12/25 12:51:39;;;;;;;11.45;6.95;;;7.20;99.90;;;;;;4975631;28;20224;-83
2021/12/25 12:54:07;;;;;;;4.53;3.47;;;7.00;99.90;;;;;;4984581;28;20220;-88
2021/12/25 12:56:36;;;;;;;2.23;2.00;;;6.90;99.90;;;;;;4986957;28;20185;-88
2021/12/25 12:59:05;;;;;;;2.60;1.80;;;6.90;99.90;;;;;;4990328;28;20185;-88
2021/12/25 13:01:33;;;;;;;1.98;1.67;;;6.90;99.90;;;;;;4980405;28;20186;-88
2021/12/25 13:04:04;;;;;;;2.88;1.50;;;6.90;1.00;;;;;;4999925;28;20181;-84
2021/12/25 13:06:32;;;;;;;2.30;1.70;;;7.00;1.00;;;;;;4982892;28;20287;-84
2021/12/25 13:09:03;;;;;;;2.17;1.63;;;7.00;1.00;;;;;;4983422;28;20247;-84
2021/12/25 13:11:38;;;;;;;1.80;1.53;;;7.10;1.00;;;;;;4982516;28;20676;-84
2021/12/25 13:14:08;;;;;;;2.73;1.70;;;7.10;99.90;;;;;;4995876;28;20222;-84
2021/12/25 13:16:39;;;;;;;1.60;1.50;;;7.10;99.90;;;;;;4992836;28;20236;-84
2021/12/25 13:19:07;;;;;;;2.63;1.67;;;7.00;99.90;;;;;;4995701;28;20683;-84
2021/12/25 13:21:36;;;;;;;2.13;1.60;;;6.90;99.90;;;;;;4982468;28;20221;-84
2021/12/25 13:24:15;;;;;;;2.43;1.60;;;6.80;99.90;;;;;;4981701;28;20189;-84
2021/12/25 13:26:48;;;;;;;2.50;1.80;;;6.80;1.00;;;;;;4982434;28;20524;-84
2021/12/25 13:29:20;;;;;;;1.97;1.40;;;6.70;1.00;;;;;;4998888;28;20193;-84
2021/12/25 13:31:49;;;;;;;2.20;1.70;;;6.60;1.00;;;;;;4995963;28;20305;-84
2021/12/25 13:34:20;;;;;;;2.60;1.70;;;6.60;1.00;;;;;;4980525;28;20189;-84
2021/12/25 13:36:51;;;;;;;2.57;1.70;;;6.60;1.00;;;;;;5014491;28;20197;-84
2021/12/25 13:39:24;;;;;;;2.42;1.75;;;6.50;1.00;;;;;;4998687;28;20280;-84
2021/12/25 13:42:09;;;;;;;2.30;1.20;;;6.50;1.00;;;;;;4998261;28;20213;-83
2021/12/25 13:44:44;;;;;;;2.33;1.52;;;6.50;1.00;;;;;;4998058;28;20283;-84
2021/12/25 13:47:17;;;;;;;1.40;1.30;;;6.50;1.00;;;;;;4963051;28;20191;-84
2021/12/25 13:49:51;;;;;;;1.90;1.50;;;6.50;7.70;;;;;;5001872;28;20202;-84
2021/12/25 13:52:20;;;;;;;3.53;1.67;;;6.50;53.10;;;;;;4972753;28;20609;-84
2021/12/25 13:54:57;;;;;;;1.90;1.53;;;6.60;99.90;;;;;;4964894;28;20233;-85
2021/12/25 13:57:27;;;;;;;1.83;1.33;;;6.60;99.90;;;;;;4972812;28;20585;-84
2021/12/25 13:59:58;;;;;;;8.73;3.97;;;6.60;99.90;;;;;;4978583;28;20186;-84
2021/12/25 14:02:25;;;;;;;2.45;1.75;;;6.60;99.90;;;;;;4992030;28;20276;-84
2021/12/25 14:04:53;;;;;;;43.00;18.88;;;6.50;99.90;;;;;;4968136;28;20647;-84
2021/12/25 14:07:24;;;;;;;16.23;7.95;;;6.50;99.90;;;;;;4981933;28;20277;-83
2021/12/25 14:10:02;;;;;;;12.90;7.67;;;6.50;99.90;;;;;;4981696;28;20243;-84
2021/12/25 14:12:30;;;;;;;4.80;2.40;;;6.50;99.90;;;;;;4989332;28;20220;-84
2021/12/25 14:14:57;;;;;;;2.00;1.80;;;6.60;99.90;;;;;;4974933;28;20189;-85
2021/12/25 14:17:25;;;;;;;4.68;2.60;;;6.60;99.90;;;;;;4981122;28;20264;-84
2021/12/25 14:20:12;;;;;;;4.33;3.00;;;6.50;94.80;;;;;;4994417;28;20188;-85
2021/12/25 14:22:41;;;;;;;3.93;2.60;;;6.50;99.90;;;;;;4978053;28;20182;-84
2021/12/25 14:25:20;;;;;;;3.13;2.80;;;6.50;1.00;;;;;;4981105;28;20185;-84
2021/12/25 14:28:05;;;;;;;6.75;2.95;;;6.50;99.90;;;;;;4982556;28;20193;-84
2021/12/25 14:30:40;;;;;;;5.30;3.40;;;6.40;1.00;;;;;;4984466;28;20260;-85
2021/12/25 14:33:19;;;;;;;3.47;2.60;;;6.40;1.00;;;;;;4977218;28;20643;-85
2021/12/25 14:35:48;;;;;;;3.27;2.70;;;6.30;71.20;;;;;;4992833;28;20192;-87